Terminal Aerodrome Forecast
Issued by NWS

Home | Current Version | Previous Version | Text Only | Print | Product List | Glossary On
Versions: 1 2 3 4 5 6 7 8 9 10 11 12 13 14 15 16 17 18 19 20
000
FTUS43 KMPX 281700
TAFAXN
TAF
KAXN 281739Z 2818/2918 12008KT 6SM BR VCSH SCT025 OVC035
      TEMPO 2818/2822 2SM -FZDZSN BR BKN015
     FM290000 13007KT P6SM BKN015 OVC035 PROB30 2904/2906 5SM -FZDZ
      BR
     FM290600 15009KT P6SM SCT020 OVC035
     FM291500 19007KT P6SM SCT020 OVC035=

USA.gov is the U.S. government's official web portal to all federal, state and local government web resources and services.